sensor_id;sensor_type;location;lat;lon;timestamp;pressure;altitude;pressure_sealevel;temperature;humidity
60589;BME280;46421;48.610;9.334;2022-12-18T00:00:44;99152.56;;;-7.70;86.86
60589;BME280;46421;48.610;9.334;2022-12-18T00:03:11;99155.72;;;-7.57;86.91
60589;BME280;46421;48.610;9.334;2022-12-18T00:05:37;99152.41;;;-7.62;86.32
60589;BME280;46421;48.610;9.334;2022-12-18T00:08:02;99155.06;;;-7.29;85.04
60589;BME280;46421;48.610;9.334;2022-12-18T00:10:28;99157.66;;;-7.29;84.50
60589;BME280;46421;48.610;9.334;2022-12-18T00:12:54;99153.56;;;-7.38;82.75
60589;BME280;46421;48.610;9.334;2022-12-18T00:15:19;99161.63;;;-7.52;80.69
60589;BME280;46421;48.610;9.334;2022-12-18T00:17:45;99169.00;;;-7.72;82.33
60589;BME280;46421;48.610;9.334;2022-12-18T00:20:10;99169.75;;;-7.69;86.41
60589;BME280;46421;48.610;9.334;2022-12-18T00:22:36;99155.31;;;-7.40;84.23
60589;BME280;46421;48.610;9.334;2022-12-18T00:25:01;99154.38;;;-7.73;81.70
60589;BME280;46421;48.610;9.334;2022-12-18T00:27:26;99160.75;;;-7.90;84.17
60589;BME280;46421;48.610;9.334;2022-12-18T00:29:52;99166.88;;;-7.96;87.17
60589;BME280;46421;48.610;9.334;2022-12-18T00:32:17;99161.19;;;-7.71;85.64
60589;BME280;46421;48.610;9.334;2022-12-18T00:34:43;99163.19;;;-7.82;84.42
60589;BME280;46421;48.610;9.334;2022-12-18T00:37:08;99169.94;;;-7.39;84.05
60589;BME280;46421;48.610;9.334;2022-12-18T00:39:34;99153.34;;;-8.05;82.76
60589;BME280;46421;48.610;9.334;2022-12-18T00:41:59;99160.16;;;-8.89;87.04
60589;BME280;46421;48.610;9.334;2022-12-18T00:44:43;99170.16;;;-8.28;87.20
60589;BME280;46421;48.610;9.334;2022-12-18T00:47:08;99176.25;;;-7.90;82.30
60589;BME280;46421;48.610;9.334;2022-12-18T00:49:34;99174.88;;;-7.67;84.72
60589;BME280;46421;48.610;9.334;2022-12-18T00:51:59;99180.34;;;-7.81;81.46
60589;BME280;46421;48.610;9.334;2022-12-18T00:54:25;99179.69;;;-7.52;83.29
60589;BME280;46421;48.610;9.334;2022-12-18T00:56:50;99172.03;;;-7.55;80.39
60589;BME280;46421;48.610;9.334;2022-12-18T00:59:17;99169.56;;;-7.61;80.60
60589;BME280;46421;48.610;9.334;2022-12-18T01:01:42;99164.75;;;-7.76;79.78
60589;BME280;46421;48.610;9.334;2022-12-18T01:04:07;99160.31;;;-8.09;83.51
60589;BME280;46421;48.610;9.334;2022-12-18T01:06:33;99165.53;;;-7.71;80.26
60589;BME280;46421;48.610;9.334;2022-12-18T01:08:58;99164.63;;;-8.10;81.89
60589;BME280;46421;48.610;9.334;2022-12-18T01:11:24;99169.91;;;-7.75;83.53
60589;BME280;46421;48.610;9.334;2022-12-18T01:13:51;99172.72;;;-7.86;86.65
60589;BME280;46421;48.610;9.334;2022-12-18T01:16:17;99171.63;;;-7.74;82.35
60589;BME280;46421;48.610;9.334;2022-12-18T01:18:43;99171.03;;;-7.88;81.27
60589;BME280;46421;48.610;9.334;2022-12-18T01:21:11;99168.22;;;-8.17;80.61
60589;BME280;46421;48.610;9.334;2022-12-18T01:23:37;99159.22;;;-8.41;85.17
60589;BME280;46421;48.610;9.334;2022-12-18T01:26:07;99165.63;;;-8.59;87.90
60589;BME280;46421;48.610;9.334;2022-12-18T01:28:33;99175.03;;;-8.16;84.34
60589;BME280;46421;48.610;9.334;2022-12-18T01:31:16;99175.97;;;-8.17;83.54
60589;BME280;46421;48.610;9.334;2022-12-18T01:33:42;99174.78;;;-8.46;83.31
60589;BME280;46421;48.610;9.334;2022-12-18T01:36:14;99179.16;;;-8.48;84.46
60589;BME280;46421;48.610;9.334;2022-12-18T01:38:40;99177.34;;;-8.46;82.09
60589;BME280;46421;48.610;9.334;2022-12-18T01:41:05;99177.91;;;-8.74;86.33
60589;BME280;46421;48.610;9.334;2022-12-18T01:43:43;99172.53;;;-8.61;83.63
60589;BME280;46421;48.610;9.334;2022-12-18T01:46:09;99168.53;;;-8.78;81.40
60589;BME280;46421;48.610;9.334;2022-12-18T01:48:35;99175.38;;;-8.77;82.22
60589;BME280;46421;48.610;9.334;2022-12-18T01:51:01;99173.38;;;-7.76;80.86
60589;BME280;46421;48.610;9.334;2022-12-18T01:53:27;99173.44;;;-7.79;76.78
60589;BME280;46421;48.610;9.334;2022-12-18T01:55:55;99173.84;;;-8.42;76.73
60589;BME280;46421;48.610;9.334;2022-12-18T01:58:35;99185.69;;;-8.31;78.88
60589;BME280;46421;48.610;9.334;2022-12-18T02:01:02;99193.47;;;-8.78;81.60
60589;BME280;46421;48.610;9.334;2022-12-18T02:03:28;99182.91;;;-9.14;78.60
60589;BME280;46421;48.610;9.334;2022-12-18T02:06:01;99168.41;;;-9.76;79.93
60589;BME280;46421;48.610;9.334;2022-12-18T02:08:37;99171.53;;;-9.56;80.41
60589;BME280;46421;48.610;9.334;2022-12-18T02:14:35;99171.59;;;-9.60;80.33
60589;BME280;46421;48.610;9.334;2022-12-18T02:17:19;99169.75;;;-8.50;79.09
60589;BME280;46421;48.610;9.334;2022-12-18T02:19:55;99174.50;;;-8.76;78.10
60589;BME280;46421;48.610;9.334;2022-12-18T02:22:26;99174.34;;;-8.66;75.55
60589;BME280;46421;48.610;9.334;2022-12-18T02:25:05;99182.00;;;-8.62;75.22
60589;BME280;46421;48.610;9.334;2022-12-18T02:27:33;99179.75;;;-9.32;75.76
60589;BME280;46421;48.610;9.334;2022-12-18T02:30:01;99180.22;;;-9.63;77.21
60589;BME280;46421;48.610;9.334;2022-12-18T02:32:37;99175.50;;;-9.36;77.35
60589;BME280;46421;48.610;9.334;2022-12-18T02:35:06;99167.97;;;-9.45;76.81
60589;BME280;46421;48.610;9.334;2022-12-18T02:37:33;99172.50;;;-9.63;77.98
60589;BME280;46421;48.610;9.334;2022-12-18T02:40:00;99180.44;;;-9.22;77.16
60589;BME280;46421;48.610;9.334;2022-12-18T02:42:27;99186.09;;;-9.56;76.06
60589;BME280;46421;48.610;9.334;2022-12-18T02:44:56;99195.13;;;-9.29;75.14
60589;BME280;46421;48.610;9.334;2022-12-18T02:47:24;99201.13;;;-9.86;76.25
60589;BME280;46421;48.610;9.334;2022-12-18T03:00:53;99209.38;;;-10.29;74.99
60589;BME280;46421;48.610;9.334;2022-12-18T03:06:23;99212.28;;;-10.57;79.70
60589;BME280;46421;48.610;9.334;2022-12-18T03:08:56;99211.53;;;-9.94;77.88
60589;BME280;46421;48.610;9.334;2022-12-18T03:11:24;99204.91;;;-9.49;75.24
60589;BME280;46421;48.610;9.334;2022-12-18T03:14:12;99191.81;;;-8.82;74.44
60589;BME280;46421;48.610;9.334;2022-12-18T03:16:41;99186.25;;;-8.59;69.90
60589;BME280;46421;48.610;9.334;2022-12-18T03:19:16;99202.84;;;-9.26;70.78
60589;BME280;46421;48.610;9.334;2022-12-18T03:21:46;99190.47;;;-9.03;68.75
60589;BME280;46421;48.610;9.334;2022-12-18T03:24:13;99197.72;;;-9.27;70.98
60589;BME280;46421;48.610;9.334;2022-12-18T03:26:43;99207.22;;;-8.32;72.04
60589;BME280;46421;48.610;9.334;2022-12-18T03:29:13;99200.50;;;-8.88;68.09
60589;BME280;46421;48.610;9.334;2022-12-18T03:31:42;99207.84;;;-9.76;70.76
60589;BME280;46421;48.610;9.334;2022-12-18T03:34:15;99203.69;;;-10.55;72.54
60589;BME280;46421;48.610;9.334;2022-12-18T03:36:44;99212.00;;;-11.21;74.49
60589;BME280;46421;48.610;9.334;2022-12-18T03:39:10;99225.03;;;-11.54;76.06
60589;BME280;46421;48.610;9.334;2022-12-18T03:42:10;99225.16;;;-11.68;77.03
60589;BME280;46421;48.610;9.334;2022-12-18T03:50:13;99222.53;;;-11.65;78.16
60589;BME280;46421;48.610;9.334;2022-12-18T03:52:46;99224.13;;;-11.42;78.15
60589;BME280;46421;48.610;9.334;2022-12-18T03:55:13;99218.78;;;-11.14;75.78
60589;BME280;46421;48.610;9.334;2022-12-18T03:57:39;99221.09;;;-10.83;73.75
60589;BME280;46421;48.610;9.334;2022-12-18T04:00:13;99220.53;;;-11.21;75.21
60589;BME280;46421;48.610;9.334;2022-12-18T04:02:43;99217.31;;;-10.46;76.78
60589;BME280;46421;48.610;9.334;2022-12-18T04:05:10;99220.44;;;-10.24;76.79
60589;BME280;46421;48.610;9.334;2022-12-18T04:07:37;99223.31;;;-10.49;71.67
60589;BME280;46421;48.610;9.334;2022-12-18T04:10:05;99221.22;;;-10.99;72.08
60589;BME280;46421;48.610;9.334;2022-12-18T04:12:32;99221.53;;;-10.42;73.58
60589;BME280;46421;48.610;9.334;2022-12-18T04:14:57;99230.75;;;-9.56;72.68
60589;BME280;46421;48.610;9.334;2022-12-18T04:17:23;99221.72;;;-9.85;67.33
60589;BME280;46421;48.610;9.334;2022-12-18T04:19:49;99219.56;;;-11.04;71.50
60589;BME280;46421;48.610;9.334;2022-12-18T04:22:15;99213.19;;;-11.69;71.18
60589;BME280;46421;48.610;9.334;2022-12-18T04:24:40;99211.59;;;-11.92;72.27
60589;BME280;46421;48.610;9.334;2022-12-18T04:27:06;99221.59;;;-11.48;74.35
60589;BME280;46421;48.610;9.334;2022-12-18T04:29:31;99222.13;;;-11.07;74.93
60589;BME280;46421;48.610;9.334;2022-12-18T04:31:57;99220.91;;;-9.91;69.16
60589;BME280;46421;48.610;9.334;2022-12-18T04:34:22;99217.00;;;-10.22;68.06
60589;BME280;46421;48.610;9.334;2022-12-18T04:36:47;99219.75;;;-11.27;70.90
60589;BME280;46421;48.610;9.334;2022-12-18T04:39:13;99216.97;;;-11.03;69.97
60589;BME280;46421;48.610;9.334;2022-12-18T04:41:39;99228.41;;;-11.46;71.80
60589;BME280;46421;48.610;9.334;2022-12-18T04:44:04;99226.59;;;-11.31;72.36
60589;BME280;46421;48.610;9.334;2022-12-18T04:46:29;99232.59;;;-11.31;72.91
60589;BME280;46421;48.610;9.334;2022-12-18T04:48:55;99230.56;;;-10.90;70.21
60589;BME280;46421;48.610;9.334;2022-12-18T04:51:21;99231.13;;;-9.83;69.85
60589;BME280;46421;48.610;9.334;2022-12-18T04:53:46;99228.25;;;-9.62;67.96
60589;BME280;46421;48.610;9.334;2022-12-18T04:56:14;99233.06;;;-10.03;66.98
60589;BME280;46421;48.610;9.334;2022-12-18T04:58:41;99214.44;;;-11.06;68.40
60589;BME280;46421;48.610;9.334;2022-12-18T05:01:07;99215.88;;;-11.90;70.86
60589;BME280;46421;48.610;9.334;2022-12-18T05:03:33;99222.09;;;-11.03;70.68
60589;BME280;46421;48.610;9.334;2022-12-18T05:05:59;99216.06;;;-10.94;68.83
60589;BME280;46421;48.610;9.334;2022-12-18T05:08:24;99218.19;;;-11.52;70.43
60589;BME280;46421;48.610;9.334;2022-12-18T05:10:49;99219.16;;;-11.73;70.88
60589;BME280;46421;48.610;9.334;2022-12-18T05:13:15;99209.00;;;-11.85;71.76
60589;BME280;46421;48.610;9.334;2022-12-18T05:15:40;99207.38;;;-12.05;72.22
60589;BME280;46421;48.610;9.334;2022-12-18T05:18:07;99211.38;;;-11.54;70.43
60589;BME280;46421;48.610;9.334;2022-12-18T05:20:32;99203.94;;;-10.79;67.83
60589;BME280;46421;48.610;9.334;2022-12-18T05:22:58;99200.34;;;-10.65;67.11
60589;BME280;46421;48.610;9.334;2022-12-18T05:25:23;99213.03;;;-11.47;69.70
60589;BME280;46421;48.610;9.334;2022-12-18T05:27:49;99212.44;;;-11.96;70.39
60589;BME280;46421;48.610;9.334;2022-12-18T05:30:15;99205.63;;;-11.95;71.86
60589;BME280;46421;48.610;9.334;2022-12-18T05:32:41;99210.00;;;-12.11;71.97
60589;BME280;46421;48.610;9.334;2022-12-18T05:35:08;99210.03;;;-12.19;71.58
60589;BME280;46421;48.610;9.334;2022-12-18T05:37:34;99222.72;;;-11.89;69.87
60589;BME280;46421;48.610;9.334;2022-12-18T05:39:59;99223.66;;;-12.09;70.86
60589;BME280;46421;48.610;9.334;2022-12-18T05:42:24;99221.72;;;-11.73;70.62
60589;BME280;46421;48.610;9.334;2022-12-18T05:44:50;99239.88;;;-12.04;69.29
60589;BME280;46421;48.610;9.334;2022-12-18T05:47:15;99222.16;;;-12.75;73.29
60589;BME280;46421;48.610;9.334;2022-12-18T05:49:41;99228.97;;;-12.79;72.72
60589;BME280;46421;48.610;9.334;2022-12-18T05:52:06;99225.56;;;-12.89;73.35
60589;BME280;46421;48.610;9.334;2022-12-18T05:54:32;99236.59;;;-12.54;71.01
60589;BME280;46421;48.610;9.334;2022-12-18T05:56:57;99232.94;;;-11.86;73.57
60589;BME280;46421;48.610;9.334;2022-12-18T05:59:23;99233.91;;;-12.09;71.28
60589;BME280;46421;48.610;9.334;2022-12-18T06:01:49;99234.81;;;-12.21;73.49
60589;BME280;46421;48.610;9.334;2022-12-18T06:04:14;99227.97;;;-12.20;70.08
60589;BME280;46421;48.610;9.334;2022-12-18T06:06:39;99226.13;;;-11.94;72.74
60589;BME280;46421;48.610;9.334;2022-12-18T06:09:05;99232.91;;;-11.79;73.45
60589;BME280;46421;48.610;9.334;2022-12-18T06:11:35;99219.81;;;-11.35;71.03
60589;BME280;46421;48.610;9.334;2022-12-18T06:14:02;99215.38;;;-11.13;69.35
60589;BME280;46421;48.610;9.334;2022-12-18T06:16:28;99221.16;;;-10.92;72.97
60589;BME280;46421;48.610;9.334;2022-12-18T06:18:58;99218.19;;;-10.49;68.65
60589;BME280;46421;48.610;9.334;2022-12-18T06:21:24;99217.97;;;-9.62;68.72
60589;BME280;46421;48.610;9.334;2022-12-18T06:23:49;99219.38;;;-10.05;64.85
60589;BME280;46421;48.610;9.334;2022-12-18T06:26:14;99231.66;;;-11.19;66.66
60589;BME280;46421;48.610;9.334;2022-12-18T06:28:40;99222.53;;;-11.60;68.21
60589;BME280;46421;48.610;9.334;2022-12-18T06:31:06;99225.56;;;-12.70;69.59
60589;BME280;46421;48.610;9.334;2022-12-18T06:33:32;99227.28;;;-13.03;73.47
60589;BME280;46421;48.610;9.334;2022-12-18T06:36:09;99237.50;;;-13.67;74.43
60589;BME280;46421;48.610;9.334;2022-12-18T06:38:37;99240.13;;;-13.42;75.92
60589;BME280;46421;48.610;9.334;2022-12-18T06:41:07;99244.38;;;-12.93;74.44
60589;BME280;46421;48.610;9.334;2022-12-18T06:43:33;99248.34;;;-11.91;74.04
60589;BME280;46421;48.610;9.334;2022-12-18T06:46:02;99249.19;;;-11.87;72.25
60589;BME280;46421;48.610;9.334;2022-12-18T06:48:28;99260.03;;;-11.37;69.52
60589;BME280;46421;48.610;9.334;2022-12-18T06:50:54;99260.53;;;-12.50;69.88
60589;BME280;46421;48.610;9.334;2022-12-18T06:53:19;99262.13;;;-12.14;71.81
60589;BME280;46421;48.610;9.334;2022-12-18T06:55:45;99262.69;;;-11.54;71.13
60589;BME280;46421;48.610;9.334;2022-12-18T06:58:10;99274.47;;;-11.18;69.28
60589;BME280;46421;48.610;9.334;2022-12-18T07:00:35;99270.22;;;-11.26;70.73
60589;BME280;46421;48.610;9.334;2022-12-18T07:03:01;99271.97;;;-11.35;70.49
60589;BME280;46421;48.610;9.334;2022-12-18T07:05:26;99261.78;;;-11.42;69.15
60589;BME280;46421;48.610;9.334;2022-12-18T07:07:51;99257.59;;;-11.56;71.70
60589;BME280;46421;48.610;9.334;2022-12-18T07:10:17;99264.53;;;-11.80;71.07
60589;BME280;46421;48.610;9.334;2022-12-18T07:12:43;99273.78;;;-11.49;74.90
60589;BME280;46421;48.610;9.334;2022-12-18T07:15:08;99277.06;;;-11.25;70.42
60589;BME280;46421;48.610;9.334;2022-12-18T07:17:34;99278.81;;;-11.31;66.56
60589;BME280;46421;48.610;9.334;2022-12-18T07:19:59;99271.28;;;-11.62;67.17
60589;BME280;46421;48.610;9.334;2022-12-18T07:22:25;99279.06;;;-11.76;67.38
60589;BME280;46421;48.610;9.334;2022-12-18T07:24:51;99274.81;;;-11.80;66.36
60589;BME280;46421;48.610;9.334;2022-12-18T07:27:16;99287.47;;;-11.47;68.80
60589;BME280;46421;48.610;9.334;2022-12-18T07:29:41;99298.56;;;-11.42;65.32
60589;BME280;46421;48.610;9.334;2022-12-18T07:32:07;99292.75;;;-11.78;66.11
60589;BME280;46421;48.610;9.334;2022-12-18T07:34:32;99285.88;;;-11.73;66.18
60589;BME280;46421;48.610;9.334;2022-12-18T07:36:58;99290.38;;;-12.20;68.92
60589;BME280;46421;48.610;9.334;2022-12-18T07:39:23;99292.88;;;-12.00;70.01
60589;BME280;46421;48.610;9.334;2022-12-18T07:41:48;99302.69;;;-11.18;68.32
60589;BME280;46421;48.610;9.334;2022-12-18T07:44:34;99292.56;;;-11.38;65.95
60589;BME280;46421;48.610;9.334;2022-12-18T07:46:59;99295.88;;;-11.20;65.18
60589;BME280;46421;48.610;9.334;2022-12-18T07:49:25;99291.09;;;-11.92;65.78
60589;BME280;46421;48.610;9.334;2022-12-18T07:51:50;99295.03;;;-11.25;67.72
60589;BME280;46421;48.610;9.334;2022-12-18T07:54:15;99300.13;;;-11.19;65.48
60589;BME280;46421;48.610;9.334;2022-12-18T07:56:41;99297.38;;;-10.91;64.99
60589;BME280;46421;48.610;9.334;2022-12-18T07:59:06;99290.38;;;-10.72;63.65
60589;BME280;46421;48.610;9.334;2022-12-18T08:01:33;99293.00;;;-10.82;63.68
60589;BME280;46421;48.610;9.334;2022-12-18T08:03:59;99301.50;;;-10.72;63.45
60589;BME280;46421;48.610;9.334;2022-12-18T08:06:24;99297.22;;;-10.71;64.10
60589;BME280;46421;48.610;9.334;2022-12-18T08:08:53;99315.28;;;-10.77;63.94
60589;BME280;46421;48.610;9.334;2022-12-18T08:11:19;99307.56;;;-10.77;64.69
60589;BME280;46421;48.610;9.334;2022-12-18T08:13:44;99311.94;;;-10.93;65.07
60589;BME280;46421;48.610;9.334;2022-12-18T08:16:10;99309.78;;;-11.62;65.97
60589;BME280;46421;48.610;9.334;2022-12-18T08:18:37;99301.09;;;-11.37;65.29
60589;BME280;46421;48.610;9.334;2022-12-18T08:21:19;99307.94;;;-11.36;70.86
60589;BME280;46421;48.610;9.334;2022-12-18T08:23:47;99306.81;;;-10.95;69.24
60589;BME280;46421;48.610;9.334;2022-12-18T08:26:13;99309.63;;;-10.28;70.68
60589;BME280;46421;48.610;9.334;2022-12-18T08:28:40;99311.91;;;-9.98;65.77
60589;BME280;46421;48.610;9.334;2022-12-18T08:31:06;99305.56;;;-10.43;65.50
60589;BME280;46421;48.610;9.334;2022-12-18T08:33:32;99308.25;;;-9.79;64.41
60589;BME280;46421;48.610;9.334;2022-12-18T08:36:01;99302.19;;;-7.21;57.91
60589;BME280;46421;48.610;9.334;2022-12-18T08:38:27;99297.63;;;-5.43;52.19
60589;BME280;46421;48.610;9.334;2022-12-18T08:41:00;99291.69;;;-4.11;49.69
60589;BME280;46421;48.610;9.334;2022-12-18T08:43:26;99283.19;;;-2.75;45.17
60589;BME280;46421;48.610;9.334;2022-12-18T08:46:11;99279.31;;;-1.42;41.95
60589;BME280;46421;48.610;9.334;2022-12-18T08:48:36;99288.16;;;-1.47;41.64
60589;BME280;46421;48.610;9.334;2022-12-18T08:51:02;99291.66;;;-0.71;41.03
60589;BME280;46421;48.610;9.334;2022-12-18T08:53:27;99281.84;;;-0.85;39.61
60589;BME280;46421;48.610;9.334;2022-12-18T08:55:53;99295.38;;;-3.20;43.36
60589;BME280;46421;48.610;9.334;2022-12-18T08:58:19;99291.03;;;-4.43;47.12
60589;BME280;46421;48.610;9.334;2022-12-18T09:00:44;99288.66;;;-6.59;53.55
60589;BME280;46421;48.610;9.334;2022-12-18T09:03:14;99289.72;;;-7.02;56.19
60589;BME280;46421;48.610;9.334;2022-12-18T09:05:40;99290.88;;;-7.56;59.01
60589;BME280;46421;48.610;9.334;2022-12-18T09:08:06;99281.75;;;-8.18;61.42
60589;BME280;46421;48.610;9.334;2022-12-18T09:10:32;99277.63;;;-8.27;61.87
60589;BME280;46421;48.610;9.334;2022-12-18T09:12:57;99278.44;;;-7.80;61.17
60589;BME280;46421;48.610;9.334;2022-12-18T09:15:23;99271.53;;;-7.78;60.27
60589;BME280;46421;48.610;9.334;2022-12-18T09:17:48;99268.94;;;-8.23;61.85
60589;BME280;46421;48.610;9.334;2022-12-18T09:20:15;99278.75;;;-7.97;62.51
60589;BME280;46421;48.610;9.334;2022-12-18T09:22:41;99271.72;;;-7.87;62.37
60589;BME280;46421;48.610;9.334;2022-12-18T09:25:07;99265.44;;;-7.75;62.45
60589;BME280;46421;48.610;9.334;2022-12-18T09:27:33;99284.13;;;-8.07;63.57
60589;BME280;46421;48.610;9.334;2022-12-18T09:29:59;99275.78;;;-7.76;63.63
60589;BME280;46421;48.610;9.334;2022-12-18T09:32:24;99275.34;;;-7.97;63.60
60589;BME280;46421;48.610;9.334;2022-12-18T09:34:50;99275.19;;;-7.47;62.99
60589;BME280;46421;48.610;9.334;2022-12-18T09:37:15;99263.47;;;-7.64;62.22
60589;BME280;46421;48.610;9.334;2022-12-18T09:39:40;99264.41;;;-7.66;64.30
60589;BME280;46421;48.610;9.334;2022-12-18T09:42:19;99271.06;;;-7.56;63.77
60589;BME280;46421;48.610;9.334;2022-12-18T09:44:50;99268.97;;;-7.38;63.57
60589;BME280;46421;48.610;9.334;2022-12-18T09:47:29;99259.59;;;-7.83;64.68
60589;BME280;46421;48.610;9.334;2022-12-18T09:50:03;99261.34;;;-7.44;63.07
60589;BME280;46421;48.610;9.334;2022-12-18T09:52:43;99262.66;;;-8.08;64.90
60589;BME280;46421;48.610;9.334;2022-12-18T09:58:19;99258.84;;;-7.49;66.69
60589;BME280;46421;48.610;9.334;2022-12-18T10:00:46;99252.13;;;-7.17;65.58
60589;BME280;46421;48.610;9.334;2022-12-18T10:03:13;99251.38;;;-7.22;64.95
60589;BME280;46421;48.610;9.334;2022-12-18T10:06:01;99244.47;;;-7.61;65.84
60589;BME280;46421;48.610;9.334;2022-12-18T10:08:42;99252.53;;;-6.96;65.71
60589;BME280;46421;48.610;9.334;2022-12-18T10:14:28;99239.41;;;-7.25;65.69
60589;BME280;46421;48.610;9.334;2022-12-18T10:19:47;99239.53;;;-6.26;64.97
60589;BME280;46421;48.610;9.334;2022-12-18T10:22:23;99237.28;;;-6.38;64.94
60589;BME280;46421;48.610;9.334;2022-12-18T10:25:20;99243.34;;;-6.39;64.11
60589;BME280;46421;48.610;9.334;2022-12-18T10:27:47;99252.75;;;-6.05;66.49
60589;BME280;46421;48.610;9.334;2022-12-18T10:30:21;99256.25;;;-6.06;64.94
60589;BME280;46421;48.610;9.334;2022-12-18T10:32:47;99247.34;;;-6.29;68.58
60589;BME280;46421;48.610;9.334;2022-12-18T10:35:21;99248.41;;;-6.03;67.12
60589;BME280;46421;48.610;9.334;2022-12-18T10:38:20;99243.34;;;-6.39;70.79
60589;BME280;46421;48.610;9.334;2022-12-18T10:41:01;99238.69;;;-5.96;69.91
60589;BME280;46421;48.610;9.334;2022-12-18T10:43:31;99235.09;;;-5.61;66.58
60589;BME280;46421;48.610;9.334;2022-12-18T10:46:18;99241.28;;;-5.66;66.58
60589;BME280;46421;48.610;9.334;2022-12-18T10:51:21;99252.63;;;-5.71;68.08
60589;BME280;46421;48.610;9.334;2022-12-18T10:53:56;99249.09;;;-5.38;67.44
60589;BME280;46421;48.610;9.334;2022-12-18T10:56:24;99241.69;;;-5.80;70.21
60589;BME280;46421;48.610;9.334;2022-12-18T10:59:01;99255.31;;;-5.44;68.87
60589;BME280;46421;48.610;9.334;2022-12-18T11:01:54;99245.63;;;-4.82;65.87
60589;BME280;46421;48.610;9.334;2022-12-18T11:07:02;99242.84;;;-5.31;68.13
60589;BME280;46421;48.610;9.334;2022-12-18T11:09:32;99240.72;;;-5.18;67.82
60589;BME280;46421;48.610;9.334;2022-12-18T11:12:00;99234.63;;;-5.45;69.42
60589;BME280;46421;48.610;9.334;2022-12-18T11:14:33;99232.13;;;-5.20;68.09
60589;BME280;46421;48.610;9.334;2022-12-18T11:17:00;99227.47;;;-5.37;69.75
60589;BME280;46421;48.610;9.334;2022-12-18T11:21:54;99223.25;;;-5.13;70.16
60589;BME280;46421;48.610;9.334;2022-12-18T11:24:34;99221.16;;;-5.01;69.81
60589;BME280;46421;48.610;9.334;2022-12-18T11:27:05;99207.22;;;-4.47;67.04
60589;BME280;46421;48.610;9.334;2022-12-18T11:29:41;99199.75;;;-4.81;68.48
60589;BME280;46421;48.610;9.334;2022-12-18T11:35:17;99194.78;;;-4.87;69.10
60589;BME280;46421;48.610;9.334;2022-12-18T11:37:49;99184.19;;;-4.31;67.44
60589;BME280;46421;48.610;9.334;2022-12-18T11:40:20;99188.41;;;-3.12;65.00
60589;BME280;46421;48.610;9.334;2022-12-18T11:42:59;99181.28;;;0.26;56.15
60589;BME280;46421;48.610;9.334;2022-12-18T11:45:30;99174.53;;;2.48;49.48
60589;BME280;46421;48.610;9.334;2022-12-18T11:48:17;99175.41;;;3.16;46.24
60589;BME280;46421;48.610;9.334;2022-12-18T11:50:51;99175.88;;;3.61;44.55
60589;BME280;46421;48.610;9.334;2022-12-18T11:53:18;99172.97;;;3.92;44.86
60589;BME280;46421;48.610;9.334;2022-12-18T12:01:24;99163.22;;;4.31;42.70
60589;BME280;46421;48.610;9.334;2022-12-18T12:04:02;99165.41;;;4.37;43.91
60589;BME280;46421;48.610;9.334;2022-12-18T12:06:52;99161.06;;;3.99;43.79
60589;BME280;46421;48.610;9.334;2022-12-18T12:12:53;99157.22;;;2.85;47.45
60589;BME280;46421;48.610;9.334;2022-12-18T12:15:44;99145.16;;;1.85;48.75
60589;BME280;46421;48.610;9.334;2022-12-18T12:18:29;99143.16;;;1.60;51.33
60589;BME280;46421;48.610;9.334;2022-12-18T12:21:12;99137.47;;;1.82;50.64
60589;BME280;46421;48.610;9.334;2022-12-18T12:26:37;99139.59;;;0.71;53.01
60589;BME280;46421;48.610;9.334;2022-12-18T12:29:49;99138.97;;;-0.14;55.88
60589;BME280;46421;48.610;9.334;2022-12-18T12:38:17;99139.06;;;-1.37;63.14
60589;BME280;46421;48.610;9.334;2022-12-18T12:40:52;99137.91;;;-2.07;64.06
60589;BME280;46421;48.610;9.334;2022-12-18T12:43:38;99146.09;;;-2.14;65.01
60589;BME280;46421;48.610;9.334;2022-12-18T12:46:09;99140.19;;;-2.78;67.60
60589;BME280;46421;48.610;9.334;2022-12-18T12:48:55;99133.50;;;-3.06;69.45
60589;BME280;46421;48.610;9.334;2022-12-18T12:51:26;99136.25;;;-2.89;70.15
60589;BME280;46421;48.610;9.334;2022-12-18T12:53:54;99137.50;;;-2.77;69.70
60589;BME280;46421;48.610;9.334;2022-12-18T12:56:21;99141.63;;;-2.92;70.10
60589;BME280;46421;48.610;9.334;2022-12-18T13:01:51;99137.69;;;-2.81;72.66
60589;BME280;46421;48.610;9.334;2022-12-18T13:04:36;99144.03;;;-2.66;72.03
60589;BME280;46421;48.610;9.334;2022-12-18T13:07:20;99157.28;;;-2.52;71.43
60589;BME280;46421;48.610;9.334;2022-12-18T13:13:10;99150.06;;;-2.66;73.44
60589;BME280;46421;48.610;9.334;2022-12-18T13:18:28;99150.84;;;-2.24;71.71
60589;BME280;46421;48.610;9.334;2022-12-18T13:34:15;99164.53;;;-3.44;76.03
60589;BME280;46421;48.610;9.334;2022-12-18T13:36:41;99160.63;;;-3.55;78.13
60589;BME280;46421;48.610;9.334;2022-12-18T13:41:48;99154.63;;;-3.35;77.00
60589;BME280;46421;48.610;9.334;2022-12-18T13:44:36;99157.22;;;-3.35;78.18
60589;BME280;46421;48.610;9.334;2022-12-18T13:47:31;99156.91;;;-3.49;78.82
60589;BME280;46421;48.610;9.334;2022-12-18T13:49:58;99156.91;;;-3.27;77.59
60589;BME280;46421;48.610;9.334;2022-12-18T13:52:33;99150.34;;;-3.36;77.84
60589;BME280;46421;48.610;9.334;2022-12-18T13:55:02;99148.28;;;-3.50;79.34
60589;BME280;46421;48.610;9.334;2022-12-18T13:57:37;99148.03;;;-3.66;79.77
60589;BME280;46421;48.610;9.334;2022-12-18T14:02:48;99151.03;;;-3.54;80.74
60589;BME280;46421;48.610;9.334;2022-12-18T14:05:31;99144.44;;;-3.41;81.75
60589;BME280;46421;48.610;9.334;2022-12-18T14:08:05;99149.28;;;-3.31;80.56
60589;BME280;46421;48.610;9.334;2022-12-18T14:10:33;99151.06;;;-3.32;79.71
60589;BME280;46421;48.610;9.334;2022-12-18T14:13:03;99158.53;;;-3.24;79.58
60589;BME280;46421;48.610;9.334;2022-12-18T14:15:36;99151.81;;;-3.30;80.04
60589;BME280;46421;48.610;9.334;2022-12-18T14:18:34;99157.56;;;-3.66;80.93
60589;BME280;46421;48.610;9.334;2022-12-18T14:21:05;99156.88;;;-3.93;82.88
60589;BME280;46421;48.610;9.334;2022-12-18T14:23:35;99148.00;;;-4.11;84.25
60589;BME280;46421;48.610;9.334;2022-12-18T14:26:28;99150.22;;;-4.24;85.76
60589;BME280;46421;48.610;9.334;2022-12-18T14:28:59;99153.72;;;-4.25;85.23
60589;BME280;46421;48.610;9.334;2022-12-18T14:31:29;99150.28;;;-4.26;85.67
60589;BME280;46421;48.610;9.334;2022-12-18T14:33:55;99163.53;;;-4.10;84.77
60589;BME280;46421;48.610;9.334;2022-12-18T14:36:23;99161.44;;;-4.00;84.57
60589;BME280;46421;48.610;9.334;2022-12-18T14:38:51;99158.41;;;-4.11;83.23